Strona główna
METAR-TAF:

METAR-TAF

Lotnisko :

Port lotniczy Puerto Princesa

Puerto Princesa, Filipiny

Szerokość geograficzna: 09-44-32N, Długość geograficzna: 118-45-31E, wysokość: 22 m

Aktualna obserwacja pogody

Raport powstał 24 minut temu, godzina 23:00 UTC
Wiatr 12 kt od wschodnio-północny wschód
Temperatura 27°C
Wilgotność 79%
Ciśnienie 1013 hPa
Widzialność 10 km lub więcej
Mało chmury na wysokości 1900 ft

METAR: RPVP 232300Z 07012KT 9999 FEW019 27/23 Q1013 RMK A2991

czas: 07:24 (23:24 UTC)

Prognoza

Raport powstał 6 godziny i 24 minut temu, godzina 17:00 UTC
Prognoza ważna od 23 godzina 18 UTC do 24 godzina 18 UTC
Wiatr 10 kt od wschód
Widzialność 10 km lub więcej
Mało chmury na wysokości 1900 ft
Przejściowo
od 23 godzina 18 UTC do 23 godzina 24 UTC
Wiatr 8 kt od wschodnio-północny wschód
Mało chmury na wysokości 1900 ft
Rozproszone chmury na wysokości 8000 ft

TAF: RPVP 231700Z 2318/2418 09010KT 9999 FEW019 TEMPO 2318/2324 07008KT FEW019 SCT080

Obserwacja i prognoza pogody dla ponad 4000 lotnisk (raport METAR i TAF).

Dostępne stacje oznaczono żółtymi i czerwonymi punktami na mapie.

Najedź kursorem aby zobaczyć nazwę stacji.

Kliknij aby zobaczyć obserwacje i prognozy pogody.

Aby zmienić mapę: kliknij na zielony przycisk z czarnym krzyżykiem, aby powiększyć; na zielony przycisk z myślnikiem, aby pomniejszyć; na zielone strzałki, aby przejść do map sąsiednich.


METAR-TAF: